createdAt,value
2018-07-14T00:02:00.842Z,7.50
2018-07-14T00:04:28.376Z,7.75
2018-07-14T00:06:55.844Z,7.07
2018-07-14T00:09:23.266Z,5.90
2018-07-14T00:11:50.815Z,7.53
2018-07-14T00:14:18.217Z,5.60
2018-07-14T00:16:45.705Z,5.97
2018-07-14T00:19:13.172Z,7.22
2018-07-14T00:21:40.609Z,64.55
2018-07-14T00:24:08.059Z,78.70
2018-07-14T00:26:35.517Z,80.12
2018-07-14T00:29:03.020Z,65.15
2018-07-14T00:31:30.508Z,7.07
2018-07-14T00:33:58.005Z,6.50
2018-07-14T00:36:25.412Z,6.93
2018-07-14T00:38:52.852Z,6.55
2018-07-14T00:41:20.296Z,6.70
2018-07-14T00:43:47.752Z,7.53
2018-07-14T00:46:15.206Z,7.28
2018-07-14T00:48:42.944Z,7.28
2018-07-14T00:51:10.391Z,5.95
2018-07-14T00:53:37.859Z,5.57
2018-07-14T00:56:05.336Z,6.20
2018-07-14T00:58:32.847Z,5.82
2018-07-14T01:01:00.286Z,5.60
2018-07-14T01:03:27.775Z,5.00
2018-07-14T01:05:55.201Z,6.32
2018-07-14T01:08:22.607Z,7.15
2018-07-14T01:10:50.009Z,6.10
2018-07-14T01:13:17.477Z,6.78
2018-07-14T01:15:44.916Z,5.57
2018-07-14T01:18:12.371Z,6.18
2018-07-14T01:20:39.799Z,7.03
2018-07-14T01:23:07.395Z,5.70
2018-07-14T01:25:34.945Z,7.53
2018-07-14T01:28:02.419Z,6.40
2018-07-14T01:30:29.945Z,7.15
2018-07-14T01:32:57.390Z,7.30
2018-07-14T01:35:24.820Z,5.93
2018-07-14T01:37:52.258Z,8.98
2018-07-14T01:40:19.736Z,9.45
2018-07-14T01:42:47.175Z,8.05
2018-07-14T01:45:14.947Z,6.62
2018-07-14T01:47:42.406Z,8.07
2018-07-14T01:50:09.896Z,6.70
2018-07-14T01:52:37.371Z,6.25
2018-07-14T01:55:04.874Z,6.85
2018-07-14T01:57:32.414Z,6.47
2018-07-14T01:59:59.831Z,6.20
2018-07-14T02:02:27.308Z,8.00
2018-07-14T02:04:54.825Z,6.70
2018-07-14T02:07:22.360Z,7.85
2018-07-14T02:09:49.805Z,6.37
2018-07-14T02:12:17.234Z,6.47
2018-07-14T02:14:44.679Z,8.23
2018-07-14T02:17:12.345Z,7.95
2018-07-14T02:19:39.804Z,9.77
2018-07-14T02:22:07.262Z,6.35
2018-07-14T02:24:34.720Z,7.80
2018-07-14T02:27:02.136Z,6.20
2018-07-14T02:29:29.568Z,6.68
2018-07-14T02:31:56.971Z,6.35
2018-07-14T02:34:24.430Z,6.95
2018-07-14T02:36:51.878Z,5.35
2018-07-14T02:39:19.344Z,7.43
2018-07-14T02:41:46.776Z,7.15
2018-07-14T02:44:15.058Z,7.10
2018-07-14T02:46:42.564Z,6.65
2018-07-14T02:49:10.048Z,6.65
2018-07-14T02:51:37.506Z,6.80
2018-07-14T02:54:04.948Z,7.65
2018-07-14T02:56:32.400Z,6.60
2018-07-14T02:58:59.881Z,6.15
2018-07-14T03:01:27.278Z,6.43
2018-07-14T03:03:54.761Z,7.10
2018-07-14T03:06:22.282Z,6.25
2018-07-14T03:08:49.728Z,6.00
2018-07-14T03:11:17.202Z,6.93
2018-07-14T03:13:44.850Z,6.18
2018-07-14T03:16:12.331Z,8.30
2018-07-14T03:18:39.753Z,7.57
2018-07-14T03:21:07.270Z,5.25
2018-07-14T03:23:34.720Z,8.25
2018-07-14T03:26:02.144Z,6.07
2018-07-14T03:28:29.643Z,6.30
2018-07-14T03:30:57.038Z,8.30
2018-07-14T03:35:58.223Z,6.22
2018-07-14T03:38:25.684Z,6.55
2018-07-14T03:40:53.178Z,7.40
2018-07-14T03:43:20.673Z,5.53
2018-07-14T03:45:48.157Z,7.28
2018-07-14T03:48:15.611Z,5.43
2018-07-14T03:50:43.054Z,6.32
2018-07-14T03:53:10.488Z,6.93
2018-07-14T03:55:37.922Z,6.78
2018-07-14T03:58:05.339Z,6.12
2018-07-14T04:00:32.775Z,5.97
2018-07-14T04:03:00.258Z,5.90
2018-07-14T04:05:27.755Z,6.10
2018-07-14T04:07:55.164Z,7.80
2018-07-14T04:10:22.614Z,7.43
2018-07-14T04:12:50.013Z,6.12
2018-07-14T04:15:17.497Z,5.87
2018-07-14T04:17:44.971Z,6.82
2018-07-14T04:20:12.565Z,7.70
2018-07-14T04:22:39.997Z,5.85
2018-07-14T04:25:07.477Z,8.02
2018-07-14T04:27:34.956Z,9.50
2018-07-14T04:30:02.443Z,6.78
2018-07-14T04:32:29.890Z,6.30
2018-07-14T04:34:57.352Z,8.35
2018-07-14T04:37:24.830Z,7.78
2018-07-14T04:39:52.372Z,6.93
2018-07-14T04:42:19.907Z,9.43
2018-07-14T04:44:47.424Z,8.90
2018-07-14T04:47:14.872Z,7.70
2018-07-14T04:49:42.316Z,6.57
2018-07-14T04:52:09.814Z,7.20
2018-07-14T04:54:37.249Z,5.93
2018-07-14T04:57:04.748Z,6.30
2018-07-14T04:59:32.177Z,5.28
2018-07-14T05:01:59.582Z,5.50
2018-07-14T05:04:27.076Z,7.40
2018-07-14T05:06:54.560Z,9.77
2018-07-14T05:09:21.959Z,6.80
2018-07-14T05:11:49.417Z,6.12
2018-07-14T05:14:16.822Z,8.70
2018-07-14T05:16:44.271Z,7.30
2018-07-14T05:19:11.745Z,7.47
2018-07-14T05:21:39.230Z,7.03
2018-07-14T05:24:06.733Z,7.30
2018-07-14T05:26:34.176Z,7.78
2018-07-14T05:29:01.623Z,5.97
2018-07-14T05:31:29.061Z,7.50
2018-07-14T05:33:56.511Z,6.22
2018-07-14T05:36:23.914Z,6.10
2018-07-14T05:38:51.346Z,6.47
2018-07-14T05:41:18.847Z,6.45
2018-07-14T05:43:46.386Z,6.85
2018-07-14T05:46:13.857Z,7.68
2018-07-14T05:48:41.328Z,5.87
2018-07-14T05:51:08.761Z,5.30
2018-07-14T05:53:36.201Z,6.12
2018-07-14T05:56:03.670Z,6.97
2018-07-14T05:58:31.136Z,7.28
2018-07-14T06:00:58.718Z,6.65
2018-07-14T06:03:26.458Z,6.68
2018-07-14T06:05:53.974Z,6.22
2018-07-14T06:08:21.423Z,7.55
2018-07-14T06:10:48.901Z,7.47
2018-07-14T06:13:17.273Z,6.55
2018-07-14T06:15:44.686Z,6.35
2018-07-14T06:18:12.128Z,6.30
2018-07-14T06:20:39.608Z,7.03
2018-07-14T06:23:07.077Z,6.87
2018-07-14T06:25:34.908Z,7.10
2018-07-14T06:28:02.382Z,9.07
2018-07-14T06:30:29.821Z,5.93
2018-07-14T06:32:57.269Z,6.72
2018-07-14T06:35:24.694Z,6.05
2018-07-14T06:37:52.159Z,7.65
2018-07-14T06:40:19.562Z,6.80
2018-07-14T06:42:47.013Z,6.37
2018-07-14T06:45:14.470Z,6.75
2018-07-14T06:47:43.864Z,6.85
2018-07-14T06:50:11.340Z,7.10
2018-07-14T06:52:38.818Z,6.35
2018-07-14T06:55:06.226Z,6.70
2018-07-14T06:57:33.875Z,8.20
2018-07-14T07:00:01.362Z,8.32
2018-07-14T07:02:28.900Z,8.73
2018-07-14T07:04:56.398Z,6.47
2018-07-14T07:07:23.881Z,5.70
2018-07-14T07:09:51.310Z,7.53
2018-07-14T07:12:18.823Z,7.12
2018-07-14T07:14:46.242Z,7.50
2018-07-14T07:17:13.695Z,7.70
2018-07-14T07:19:41.167Z,8.23
2018-07-14T07:22:08.680Z,7.53
2018-07-14T07:24:36.132Z,7.78
2018-07-14T07:27:03.595Z,8.32
2018-07-14T07:29:30.982Z,8.80
2018-07-14T07:31:58.467Z,7.50
2018-07-14T07:34:25.895Z,9.00
2018-07-14T07:36:54.054Z,8.85
2018-07-14T07:39:21.453Z,8.15
2018-07-14T07:41:48.962Z,7.20
2018-07-14T07:44:16.409Z,7.65
2018-07-14T07:46:43.906Z,7.85
2018-07-14T07:49:11.380Z,9.77
2018-07-14T07:51:38.834Z,8.13
2018-07-14T07:54:06.341Z,8.10
2018-07-14T07:56:33.791Z,10.20
2018-07-14T07:59:01.226Z,7.03
2018-07-14T08:01:28.855Z,8.98
2018-07-14T08:03:56.303Z,8.55
2018-07-14T08:06:23.778Z,17.15
2018-07-14T08:08:51.286Z,11.45
2018-07-14T08:11:18.730Z,11.82
2018-07-14T08:13:46.250Z,8.95
2018-07-14T08:16:13.846Z,8.27
2018-07-14T08:18:41.218Z,9.07
2018-07-14T08:21:08.703Z,9.13
2018-07-14T08:23:36.158Z,9.82
2018-07-14T08:26:03.600Z,7.95
2018-07-14T08:28:31.060Z,8.35
2018-07-14T08:30:58.497Z,9.27
2018-07-14T08:33:25.930Z,8.10
2018-07-14T08:35:53.412Z,6.07
2018-07-14T08:38:20.892Z,6.22
2018-07-14T08:40:48.406Z,7.72
2018-07-14T08:43:15.872Z,7.35
2018-07-14T08:45:43.344Z,7.15
2018-07-14T08:48:10.749Z,8.10
2018-07-14T08:50:38.220Z,7.93
2018-07-14T08:53:05.701Z,10.68
2018-07-14T08:55:33.141Z,8.70
2018-07-14T08:58:00.916Z,7.07
2018-07-14T09:00:28.442Z,9.27
2018-07-14T09:02:56.035Z,8.98
2018-07-14T09:05:23.619Z,8.55
2018-07-14T09:07:51.052Z,8.50
2018-07-14T09:10:18.550Z,8.15
2018-07-14T09:12:46.025Z,8.30
2018-07-14T09:15:13.512Z,7.80
2018-07-14T09:17:40.942Z,8.27
2018-07-14T09:20:08.495Z,9.52
2018-07-14T09:22:36.055Z,7.20
2018-07-14T09:25:03.555Z,7.10
2018-07-14T09:27:31.065Z,7.72
2018-07-14T09:29:58.549Z,7.30
2018-07-14T09:32:26.065Z,9.20
2018-07-14T09:34:53.524Z,9.07
2018-07-14T09:37:21.044Z,8.25
2018-07-14T09:39:48.595Z,9.20
2018-07-14T09:42:15.998Z,9.00
2018-07-14T09:59:26.010Z,10.70
2018-07-14T11:13:01.212Z,41.65
2018-07-14T11:15:28.647Z,10.90
2018-07-14T11:17:56.210Z,11.52
2018-07-14T11:20:23.678Z,9.32
2018-07-14T11:22:51.132Z,11.43
2018-07-14T11:25:18.605Z,12.18
2018-07-14T11:27:46.062Z,10.23
2018-07-14T11:30:13.581Z,11.70
2018-07-14T11:32:41.072Z,10.13
2018-07-14T11:35:08.511Z,9.18
2018-07-14T11:37:35.959Z,8.45
2018-07-14T11:40:03.359Z,10.90
2018-07-14T11:42:30.853Z,12.95
2018-07-14T11:44:58.299Z,12.20
2018-07-14T11:47:25.812Z,8.73
2018-07-14T11:49:53.281Z,11.32
2018-07-14T11:52:20.843Z,9.40
2018-07-14T11:54:48.333Z,10.57
2018-07-14T11:57:15.803Z,9.82
2018-07-14T11:59:43.586Z,9.88
2018-07-14T12:02:11.087Z,11.35
2018-07-14T12:04:38.499Z,11.12
2018-07-14T12:07:05.990Z,9.73
2018-07-14T12:09:33.492Z,13.27
2018-07-14T12:12:01.025Z,12.70
2018-07-14T12:14:28.514Z,10.25
2018-07-14T12:16:55.962Z,10.50
2018-07-14T12:19:23.440Z,10.02
2018-07-14T12:21:50.997Z,10.00
2018-07-14T12:24:18.467Z,11.65
2018-07-14T12:26:46.025Z,9.02
2018-07-14T12:29:13.471Z,10.73
2018-07-14T12:31:40.931Z,13.18
2018-07-14T12:34:08.477Z,10.52
2018-07-14T12:36:35.960Z,10.00
2018-07-14T12:39:03.375Z,10.85
2018-07-14T12:41:31.984Z,12.37
2018-07-14T12:43:59.471Z,12.63
2018-07-14T12:46:27.125Z,10.95
2018-07-14T12:48:54.640Z,8.65
2018-07-14T12:51:22.252Z,10.25
2018-07-14T12:53:49.750Z,9.70
2018-07-14T12:56:17.184Z,8.00
2018-07-14T12:58:44.698Z,10.25
2018-07-14T13:01:12.922Z,9.38
2018-07-14T13:03:40.407Z,10.90
2018-07-14T13:06:08.180Z,9.85
2018-07-14T13:08:35.702Z,9.80
2018-07-14T13:11:03.214Z,10.27
2018-07-14T13:13:30.689Z,7.90
2018-07-14T13:15:58.180Z,9.30
2018-07-14T13:18:25.655Z,10.35
2018-07-14T13:20:53.097Z,9.90
2018-07-14T13:23:20.712Z,10.68
2018-07-14T13:25:48.252Z,9.30
2018-07-14T13:28:15.716Z,46.58
2018-07-14T13:30:43.162Z,47.75
2018-07-14T13:33:10.616Z,43.67
2018-07-14T13:35:38.081Z,46.83
2018-07-14T13:38:05.497Z,9.38
2018-07-14T13:40:32.929Z,11.63
2018-07-14T13:43:00.421Z,9.68
2018-07-14T13:45:27.969Z,8.07
2018-07-14T13:47:55.421Z,9.65
2018-07-14T13:50:22.877Z,11.77
2018-07-14T13:52:50.357Z,11.07
2018-07-14T13:55:18.074Z,10.20
2018-07-14T13:57:45.570Z,8.80
2018-07-14T14:00:13.022Z,9.95
2018-07-14T14:02:40.470Z,8.63
2018-07-14T14:05:07.915Z,10.65
2018-07-14T14:07:35.354Z,9.38
2018-07-14T14:10:02.889Z,9.98
2018-07-14T14:12:30.359Z,10.60
2018-07-14T14:14:57.844Z,11.45
2018-07-14T14:17:25.342Z,7.55
2018-07-14T14:19:52.816Z,8.27
2018-07-14T14:22:20.243Z,10.20
2018-07-14T14:24:47.649Z,9.75
2018-07-14T14:27:15.108Z,10.82
2018-07-14T14:29:42.625Z,8.90
2018-07-14T14:32:10.047Z,9.25
2018-07-14T14:34:37.446Z,8.85
2018-07-14T14:37:04.895Z,9.00
2018-07-14T14:39:32.518Z,8.45
2018-07-14T14:41:59.918Z,7.80
2018-07-14T14:44:27.338Z,9.65
2018-07-14T14:46:54.782Z,10.27
2018-07-14T14:49:22.255Z,8.13
2018-07-14T14:51:49.694Z,7.20
2018-07-14T14:54:17.102Z,9.07
2018-07-14T14:56:44.661Z,8.13
2018-07-14T14:59:12.120Z,6.55
2018-07-14T15:01:39.525Z,8.10
2018-07-14T15:04:06.947Z,8.60
2018-07-14T15:06:34.429Z,8.43
2018-07-14T15:09:01.956Z,8.20
2018-07-14T15:11:29.393Z,7.78
2018-07-14T15:13:56.912Z,8.80
2018-07-14T15:16:25.042Z,8.55
2018-07-14T15:18:52.489Z,9.45
2018-07-14T15:21:20.013Z,7.85
2018-07-14T15:23:47.567Z,6.47
2018-07-14T15:26:15.051Z,7.55
2018-07-14T15:28:42.497Z,78.95
2018-07-14T15:31:09.926Z,87.65
2018-07-14T15:33:37.569Z,82.43
2018-07-14T15:36:04.972Z,73.90
2018-07-14T15:38:32.523Z,12.93
2018-07-14T15:40:59.989Z,6.90
2018-07-14T15:43:27.465Z,7.45
2018-07-14T15:45:54.990Z,8.32
2018-07-14T15:48:22.472Z,7.47
2018-07-14T15:50:49.902Z,6.75
2018-07-14T15:53:17.368Z,6.20
2018-07-14T15:55:44.893Z,7.07
2018-07-14T15:58:12.369Z,6.53
2018-07-14T16:00:39.808Z,6.80
2018-07-14T16:03:07.233Z,6.93
2018-07-14T16:05:34.668Z,6.60
2018-07-14T16:08:02.206Z,6.35
2018-07-14T16:10:29.614Z,5.60
2018-07-14T16:12:57.055Z,7.35
2018-07-14T16:15:24.479Z,6.55
2018-07-14T16:17:51.972Z,7.18
2018-07-14T16:20:19.499Z,5.90
2018-07-14T16:22:46.949Z,8.00
2018-07-14T16:25:14.391Z,5.85
2018-07-14T16:27:41.840Z,8.48
2018-07-14T16:30:09.310Z,9.52
2018-07-14T16:32:36.774Z,7.72
2018-07-14T16:35:04.235Z,7.25
2018-07-14T16:37:31.704Z,10.25
2018-07-14T16:39:59.142Z,9.85
2018-07-14T16:42:26.607Z,7.85
2018-07-14T16:44:54.033Z,7.85
2018-07-14T16:47:21.509Z,7.70
2018-07-14T16:49:49.009Z,7.60
2018-07-14T16:52:16.839Z,7.25
2018-07-14T16:54:44.264Z,7.37
2018-07-14T16:57:11.802Z,9.35
2018-07-14T16:59:39.282Z,8.13
2018-07-14T17:02:06.710Z,9.40
2018-07-14T17:04:34.163Z,9.32
2018-07-14T17:07:01.608Z,21.12
2018-07-14T17:09:29.063Z,9.95
2018-07-14T17:11:56.511Z,7.47
2018-07-14T17:14:24.020Z,9.00
2018-07-14T17:16:51.534Z,8.50
2018-07-14T17:19:18.970Z,9.50
2018-07-14T17:21:46.632Z,11.15
2018-07-14T17:24:14.074Z,8.20
2018-07-14T17:26:41.535Z,7.40
2018-07-14T17:29:08.968Z,8.70
2018-07-14T17:31:36.465Z,10.73
2018-07-14T17:34:03.941Z,12.10
2018-07-14T17:36:31.358Z,8.90
2018-07-14T17:38:58.829Z,7.40
2018-07-14T17:41:26.292Z,8.48
2018-07-14T17:43:53.808Z,8.13
2018-07-14T17:46:21.280Z,6.70
2018-07-14T17:48:48.788Z,8.98
2018-07-14T17:51:16.184Z,6.85
2018-07-14T17:53:43.583Z,8.60
2018-07-14T17:56:11.050Z,8.38
2018-07-14T17:58:38.614Z,9.60
2018-07-14T18:01:06.023Z,8.23
2018-07-14T18:03:33.517Z,9.07
2018-07-14T18:06:00.934Z,7.07
2018-07-14T18:08:28.386Z,7.50
2018-07-14T18:10:55.877Z,7.80
2018-07-14T18:13:23.296Z,8.63
2018-07-14T18:15:50.920Z,9.45
2018-07-14T18:18:18.492Z,8.95
2018-07-14T18:20:45.928Z,7.72
2018-07-14T18:23:13.459Z,8.77
2018-07-14T18:25:40.983Z,8.52
2018-07-14T18:28:08.476Z,7.53
2018-07-14T18:30:35.906Z,8.70
2018-07-14T18:33:03.329Z,7.60
2018-07-14T18:35:30.781Z,7.97
2018-07-14T18:37:58.395Z,8.75
2018-07-14T18:40:25.839Z,10.32
2018-07-14T18:42:53.335Z,9.30
2018-07-14T18:45:20.811Z,8.50
2018-07-14T18:47:48.271Z,10.00
2018-07-14T18:50:15.694Z,8.75
2018-07-14T18:52:43.216Z,8.38
2018-07-14T18:55:10.600Z,8.70
2018-07-14T18:57:38.066Z,9.05
2018-07-14T19:00:05.501Z,7.75
2018-07-14T19:02:32.940Z,6.97
2018-07-14T19:05:00.446Z,8.52
2018-07-14T19:07:27.832Z,6.45
2018-07-14T19:09:55.307Z,45.30
2018-07-14T19:12:22.819Z,47.58
2018-07-14T19:14:50.270Z,36.38
2018-07-14T19:17:17.739Z,7.68
2018-07-14T19:19:45.207Z,41.10
2018-07-14T19:22:12.681Z,45.05
2018-07-14T19:24:40.157Z,43.60
2018-07-14T19:27:07.580Z,40.83
2018-07-14T19:29:35.038Z,15.60
2018-07-14T19:32:02.468Z,5.43
2018-07-14T19:34:29.928Z,6.37
2018-07-14T19:36:58.362Z,5.97
2018-07-14T19:39:25.859Z,4.90
2018-07-14T19:41:53.294Z,5.72
2018-07-14T19:44:20.720Z,6.40
2018-07-14T19:46:48.189Z,6.12
2018-07-14T19:49:15.641Z,5.72
2018-07-14T19:51:43.381Z,5.15
2018-07-14T19:54:10.883Z,5.40
2018-07-14T19:56:38.331Z,5.50
2018-07-14T19:59:05.890Z,6.75
2018-07-14T20:01:33.407Z,5.35
2018-07-14T20:04:01.136Z,4.65
2018-07-14T20:06:28.695Z,4.53
2018-07-14T20:08:56.103Z,5.37
2018-07-14T20:11:24.503Z,4.93
2018-07-14T20:13:52.111Z,4.97
2018-07-14T20:16:19.549Z,5.22
2018-07-14T20:18:47.150Z,4.05
2018-07-14T20:21:14.542Z,4.45
2018-07-14T20:23:41.952Z,5.28
2018-07-14T20:26:09.362Z,6.32
2018-07-14T20:28:36.864Z,5.43
2018-07-14T20:31:04.377Z,4.68
2018-07-14T20:33:31.976Z,5.03
2018-07-14T20:35:59.449Z,4.25
2018-07-14T20:38:27.070Z,4.25
2018-07-14T20:40:54.471Z,5.43
2018-07-14T20:43:21.935Z,5.20
2018-07-14T20:45:49.467Z,5.80
2018-07-14T20:48:16.996Z,4.90
2018-07-14T20:50:44.470Z,5.12
2018-07-14T20:53:12.032Z,5.05
2018-07-14T20:55:39.467Z,7.15
2018-07-14T20:58:07.054Z,5.87
2018-07-14T21:00:34.467Z,5.75
2018-07-14T21:03:01.971Z,5.18
2018-07-14T21:05:29.415Z,4.60
2018-07-14T21:07:56.911Z,5.03
2018-07-14T21:10:24.337Z,6.55
2018-07-14T21:12:51.784Z,5.37
2018-07-14T21:15:19.263Z,5.35
2018-07-14T21:17:46.882Z,6.55
2018-07-14T21:20:14.383Z,6.10
2018-07-14T21:22:41.807Z,8.13
2018-07-14T21:25:09.290Z,5.72
2018-07-14T21:27:36.828Z,5.00
2018-07-14T21:30:04.304Z,4.55
2018-07-14T21:32:31.745Z,5.32
2018-07-14T21:34:59.171Z,8.00
2018-07-14T21:37:26.631Z,4.85
2018-07-14T21:39:54.147Z,7.50
2018-07-14T21:42:21.679Z,6.72
2018-07-14T21:44:49.111Z,4.72
2018-07-14T21:47:16.545Z,4.65
2018-07-14T21:49:43.935Z,4.30
2018-07-14T21:52:11.357Z,4.43
2018-07-14T21:54:38.774Z,4.03
2018-07-14T21:57:06.210Z,4.72
2018-07-14T21:59:33.623Z,5.20
2018-07-14T22:02:01.063Z,4.82
2018-07-14T22:04:28.498Z,4.45
2018-07-14T22:06:55.953Z,4.40
2018-07-14T22:09:23.516Z,3.35
2018-07-14T22:11:51.000Z,3.95
2018-07-14T22:14:18.401Z,3.85
2018-07-14T22:16:45.843Z,4.07
2018-07-14T22:19:13.328Z,3.97
2018-07-14T22:21:40.754Z,3.30
2018-07-14T22:24:08.416Z,4.15
2018-07-14T22:26:35.926Z,3.50
2018-07-14T22:29:03.406Z,4.30
2018-07-14T22:31:30.831Z,3.67
2018-07-14T22:33:58.435Z,4.35
2018-07-14T22:36:25.920Z,4.93
2018-07-14T22:38:53.408Z,4.47
2018-07-14T22:41:20.888Z,5.70
2018-07-14T22:43:48.458Z,3.97
2018-07-14T22:46:15.868Z,3.97
2018-07-14T22:48:43.304Z,4.07
2018-07-14T22:51:10.767Z,4.43
2018-07-14T22:53:38.301Z,3.60
2018-07-14T22:56:05.728Z,4.43
2018-07-14T22:58:33.331Z,4.40
2018-07-14T23:01:00.755Z,3.65
2018-07-14T23:03:28.162Z,7.75
2018-07-14T23:05:55.580Z,7.75
2018-07-14T23:08:23.067Z,5.87
2018-07-14T23:10:50.838Z,4.90
2018-07-14T23:13:18.319Z,5.62
2018-07-14T23:15:45.750Z,5.20
2018-07-14T23:18:13.279Z,4.95
2018-07-14T23:20:40.785Z,5.32
2018-07-14T23:23:08.268Z,4.95
2018-07-14T23:25:35.812Z,4.43
2018-07-14T23:28:03.257Z,5.75
2018-07-14T23:30:30.692Z,6.25
2018-07-14T23:32:58.298Z,5.70
2018-07-14T23:35:25.793Z,4.87
2018-07-14T23:37:53.238Z,5.00
2018-07-14T23:40:20.679Z,6.70
2018-07-14T23:42:48.171Z,5.72
2018-07-14T23:45:15.696Z,5.47
2018-07-14T23:47:43.124Z,7.70
2018-07-14T23:50:10.562Z,6.75
2018-07-14T23:52:38.004Z,4.65
2018-07-14T23:55:05.442Z,7.25
2018-07-14T23:57:32.976Z,4.95
